sensor_id;sensor_type;location;lat;lon;timestamp;P1;durP1;ratioP1;P2;durP2;ratioP2
47555;SDS011;33291;46.222;26.460;2023-02-07T00:00:07;8.82;;;4.85;;
47555;SDS011;33291;46.222;26.460;2023-02-07T00:05:01;8.60;;;5.03;;
47555;SDS011;33291;46.222;26.460;2023-02-07T00:07:27;10.00;;;5.03;;
47555;SDS011;33291;46.222;26.460;2023-02-07T00:09:52;11.43;;;4.63;;
47555;SDS011;33291;46.222;26.460;2023-02-07T00:12:18;7.30;;;4.03;;
47555;SDS011;33291;46.222;26.460;2023-02-07T00:14:44;8.27;;;4.80;;
47555;SDS011;33291;46.222;26.460;2023-02-07T00:17:09;8.68;;;4.90;;
47555;SDS011;33291;46.222;26.460;2023-02-07T00:19:35;8.93;;;4.20;;
47555;SDS011;33291;46.222;26.460;2023-02-07T00:22:00;7.43;;;3.97;;
47555;SDS011;33291;46.222;26.460;2023-02-07T00:24:26;10.80;;;4.60;;
47555;SDS011;33291;46.222;26.460;2023-02-07T00:26:52;9.60;;;4.07;;
47555;SDS011;33291;46.222;26.460;2023-02-07T00:29:18;11.25;;;5.15;;
47555;SDS011;33291;46.222;26.460;2023-02-07T00:31:43;11.70;;;4.78;;
47555;SDS011;33291;46.222;26.460;2023-02-07T00:34:09;9.05;;;4.72;;
47555;SDS011;33291;46.222;26.460;2023-02-07T00:36:36;10.20;;;4.68;;
47555;SDS011;33291;46.222;26.460;2023-02-07T00:39:03;7.97;;;4.03;;
47555;SDS011;33291;46.222;26.460;2023-02-07T00:41:31;9.63;;;3.92;;
47555;SDS011;33291;46.222;26.460;2023-02-07T00:43:58;6.95;;;3.78;;
47555;SDS011;33291;46.222;26.460;2023-02-07T00:46:23;9.27;;;4.53;;
47555;SDS011;33291;46.222;26.460;2023-02-07T00:48:49;8.75;;;4.50;;
47555;SDS011;33291;46.222;26.460;2023-02-07T00:51:16;7.28;;;3.75;;
47555;SDS011;33291;46.222;26.460;2023-02-07T00:53:42;9.50;;;5.05;;
47555;SDS011;33291;46.222;26.460;2023-02-07T00:56:09;7.47;;;3.90;;
47555;SDS011;33291;46.222;26.460;2023-02-07T00:58:36;7.82;;;4.32;;
47555;SDS011;33291;46.222;26.460;2023-02-07T01:01:03;8.70;;;4.53;;
47555;SDS011;33291;46.222;26.460;2023-02-07T01:03:29;8.20;;;4.43;;
47555;SDS011;33291;46.222;26.460;2023-02-07T01:05:55;8.10;;;4.70;;
47555;SDS011;33291;46.222;26.460;2023-02-07T01:08:20;10.63;;;4.47;;
47555;SDS011;33291;46.222;26.460;2023-02-07T01:10:46;7.43;;;3.97;;
47555;SDS011;33291;46.222;26.460;2023-02-07T01:13:12;9.82;;;4.68;;
47555;SDS011;33291;46.222;26.460;2023-02-07T01:15:40;5.72;;;3.72;;
47555;SDS011;33291;46.222;26.460;2023-02-07T01:18:08;9.40;;;4.97;;
47555;SDS011;33291;46.222;26.460;2023-02-07T01:20:34;9.00;;;4.30;;
47555;SDS011;33291;46.222;26.460;2023-02-07T01:23:00;7.75;;;4.30;;
47555;SDS011;33291;46.222;26.460;2023-02-07T01:25:26;9.40;;;4.32;;
47555;SDS011;33291;46.222;26.460;2023-02-07T01:27:52;12.13;;;4.35;;
47555;SDS011;33291;46.222;26.460;2023-02-07T01:30:18;7.90;;;4.00;;
47555;SDS011;33291;46.222;26.460;2023-02-07T01:32:43;7.70;;;4.13;;
47555;SDS011;33291;46.222;26.460;2023-02-07T01:35:09;8.13;;;3.50;;
47555;SDS011;33291;46.222;26.460;2023-02-07T01:37:34;30.10;;;9.10;;
47555;SDS011;33291;46.222;26.460;2023-02-07T01:40:00;22.65;;;9.05;;
47555;SDS011;33291;46.222;26.460;2023-02-07T01:42:26;26.45;;;11.73;;
47555;SDS011;33291;46.222;26.460;2023-02-07T01:47:20;19.67;;;8.98;;
47555;SDS011;33291;46.222;26.460;2023-02-07T01:49:48;26.58;;;10.00;;
47555;SDS011;33291;46.222;26.460;2023-02-07T01:52:19;17.35;;;8.15;;
47555;SDS011;33291;46.222;26.460;2023-02-07T01:54:49;23.05;;;9.20;;
47555;SDS011;33291;46.222;26.460;2023-02-07T01:57:18;20.42;;;8.15;;
47555;SDS011;33291;46.222;26.460;2023-02-07T01:59:47;18.83;;;8.95;;
47555;SDS011;33291;46.222;26.460;2023-02-07T02:02:15;45.72;;;19.05;;
47555;SDS011;33291;46.222;26.460;2023-02-07T02:04:43;29.75;;;12.60;;
47555;SDS011;33291;46.222;26.460;2023-02-07T02:07:09;21.70;;;9.85;;
47555;SDS011;33291;46.222;26.460;2023-02-07T02:09:37;15.25;;;5.75;;
47555;SDS011;33291;46.222;26.460;2023-02-07T02:15:15;18.52;;;8.00;;
47555;SDS011;33291;46.222;26.460;2023-02-07T02:20:58;12.45;;;5.97;;
47555;SDS011;33291;46.222;26.460;2023-02-07T02:32:13;16.65;;;7.95;;
47555;SDS011;33291;46.222;26.460;2023-02-07T02:35:16;32.33;;;14.05;;
47555;SDS011;33291;46.222;26.460;2023-02-07T02:37:55;35.22;;;14.38;;
47555;SDS011;33291;46.222;26.460;2023-02-07T02:45:57;24.33;;;9.68;;
47555;SDS011;33291;46.222;26.460;2023-02-07T02:48:26;24.85;;;11.38;;
47555;SDS011;33291;46.222;26.460;2023-02-07T02:50:53;27.17;;;11.48;;
47555;SDS011;33291;46.222;26.460;2023-02-07T02:53:19;22.70;;;8.35;;
47555;SDS011;33291;46.222;26.460;2023-02-07T03:13:07;24.95;;;9.15;;
47555;SDS011;33291;46.222;26.460;2023-02-07T03:21:16;10.35;;;5.30;;
47555;SDS011;33291;46.222;26.460;2023-02-07T03:23:56;7.70;;;3.88;;
47555;SDS011;33291;46.222;26.460;2023-02-07T03:26:25;11.35;;;4.28;;
47555;SDS011;33291;46.222;26.460;2023-02-07T03:28:53;7.88;;;2.83;;
47555;SDS011;33291;46.222;26.460;2023-02-07T03:31:21;5.63;;;3.00;;
47555;SDS011;33291;46.222;26.460;2023-02-07T03:33:50;7.20;;;2.67;;
47555;SDS011;33291;46.222;26.460;2023-02-07T03:36:30;8.50;;;2.97;;
47555;SDS011;33291;46.222;26.460;2023-02-07T03:39:00;8.00;;;3.25;;
47555;SDS011;33291;46.222;26.460;2023-02-07T03:41:27;7.40;;;3.20;;
47555;SDS011;33291;46.222;26.460;2023-02-07T03:43:57;10.68;;;3.88;;
47555;SDS011;33291;46.222;26.460;2023-02-07T03:46:31;7.10;;;3.38;;
47555;SDS011;33291;46.222;26.460;2023-02-07T03:48:59;5.80;;;2.63;;
47555;SDS011;33291;46.222;26.460;2023-02-07T03:51:25;5.85;;;3.45;;
47555;SDS011;33291;46.222;26.460;2023-02-07T03:53:50;7.25;;;2.92;;
47555;SDS011;33291;46.222;26.460;2023-02-07T03:56:16;6.25;;;3.15;;
47555;SDS011;33291;46.222;26.460;2023-02-07T03:58:41;5.90;;;2.78;;
47555;SDS011;33291;46.222;26.460;2023-02-07T04:01:07;5.63;;;2.70;;
47555;SDS011;33291;46.222;26.460;2023-02-07T04:03:32;6.20;;;2.97;;
47555;SDS011;33291;46.222;26.460;2023-02-07T04:05:58;7.18;;;3.78;;
47555;SDS011;33291;46.222;26.460;2023-02-07T04:08:23;7.15;;;3.35;;
47555;SDS011;33291;46.222;26.460;2023-02-07T04:10:55;4.32;;;2.35;;
47555;SDS011;33291;46.222;26.460;2023-02-07T04:13:25;4.45;;;2.85;;
47555;SDS011;33291;46.222;26.460;2023-02-07T04:15:51;8.32;;;2.33;;
47555;SDS011;33291;46.222;26.460;2023-02-07T04:18:16;5.15;;;2.42;;
47555;SDS011;33291;46.222;26.460;2023-02-07T04:20:42;5.03;;;2.42;;
47555;SDS011;33291;46.222;26.460;2023-02-07T04:23:07;5.47;;;2.85;;
47555;SDS011;33291;46.222;26.460;2023-02-07T04:25:33;5.68;;;2.53;;
47555;SDS011;33291;46.222;26.460;2023-02-07T04:27:58;4.25;;;2.70;;
47555;SDS011;33291;46.222;26.460;2023-02-07T04:30:24;6.20;;;3.22;;
47555;SDS011;33291;46.222;26.460;2023-02-07T04:32:49;7.75;;;2.33;;
47555;SDS011;33291;46.222;26.460;2023-02-07T04:35:15;9.07;;;2.67;;
47555;SDS011;33291;46.222;26.460;2023-02-07T04:37:40;11.48;;;5.75;;
47555;SDS011;33291;46.222;26.460;2023-02-07T04:40:06;4.35;;;2.70;;
47555;SDS011;33291;46.222;26.460;2023-02-07T04:42:32;4.32;;;2.58;;
47555;SDS011;33291;46.222;26.460;2023-02-07T04:44:57;6.60;;;3.22;;
47555;SDS011;33291;46.222;26.460;2023-02-07T04:47:22;6.80;;;3.42;;
47555;SDS011;33291;46.222;26.460;2023-02-07T04:49:48;14.68;;;6.28;;
47555;SDS011;33291;46.222;26.460;2023-02-07T04:52:14;7.85;;;2.70;;
47555;SDS011;33291;46.222;26.460;2023-02-07T04:54:39;11.43;;;4.68;;
47555;SDS011;33291;46.222;26.460;2023-02-07T04:57:05;5.65;;;2.38;;
47555;SDS011;33291;46.222;26.460;2023-02-07T04:59:30;6.30;;;3.17;;
47555;SDS011;33291;46.222;26.460;2023-02-07T05:01:56;6.90;;;3.40;;
47555;SDS011;33291;46.222;26.460;2023-02-07T05:04:21;17.45;;;6.22;;
47555;SDS011;33291;46.222;26.460;2023-02-07T05:06:46;58.60;;;21.15;;
47555;SDS011;33291;46.222;26.460;2023-02-07T05:09:12;31.75;;;10.75;;
47555;SDS011;33291;46.222;26.460;2023-02-07T05:11:37;20.42;;;8.88;;
47555;SDS011;33291;46.222;26.460;2023-02-07T05:14:03;17.38;;;6.90;;
47555;SDS011;33291;46.222;26.460;2023-02-07T05:16:28;35.33;;;16.23;;
47555;SDS011;33291;46.222;26.460;2023-02-07T05:18:54;30.30;;;17.38;;
47555;SDS011;33291;46.222;26.460;2023-02-07T05:21:19;6.75;;;3.38;;
47555;SDS011;33291;46.222;26.460;2023-02-07T05:23:45;8.00;;;3.53;;
47555;SDS011;33291;46.222;26.460;2023-02-07T05:26:10;6.25;;;3.42;;
47555;SDS011;33291;46.222;26.460;2023-02-07T05:28:36;4.13;;;2.70;;
47555;SDS011;33291;46.222;26.460;2023-02-07T05:31:01;9.45;;;4.65;;
47555;SDS011;33291;46.222;26.460;2023-02-07T05:33:27;5.55;;;2.88;;
47555;SDS011;33291;46.222;26.460;2023-02-07T05:35:52;5.47;;;2.80;;
47555;SDS011;33291;46.222;26.460;2023-02-07T05:38:18;5.80;;;2.70;;
47555;SDS011;33291;46.222;26.460;2023-02-07T05:40:44;28.38;;;16.52;;
47555;SDS011;33291;46.222;26.460;2023-02-07T05:43:11;11.88;;;5.97;;
47555;SDS011;33291;46.222;26.460;2023-02-07T05:45:37;4.88;;;2.75;;
47555;SDS011;33291;46.222;26.460;2023-02-07T05:48:03;6.80;;;3.03;;
47555;SDS011;33291;46.222;26.460;2023-02-07T05:50:30;7.38;;;2.97;;
47555;SDS011;33291;46.222;26.460;2023-02-07T05:52:56;7.05;;;2.28;;
47555;SDS011;33291;46.222;26.460;2023-02-07T05:55:21;13.65;;;12.18;;
47555;SDS011;33291;46.222;26.460;2023-02-07T05:57:46;5.35;;;3.17;;
47555;SDS011;33291;46.222;26.460;2023-02-07T06:00:13;5.95;;;3.25;;
47555;SDS011;33291;46.222;26.460;2023-02-07T06:02:40;15.35;;;7.72;;
47555;SDS011;33291;46.222;26.460;2023-02-07T06:05:07;9.02;;;5.47;;
47555;SDS011;33291;46.222;26.460;2023-02-07T06:07:35;6.38;;;2.72;;
47555;SDS011;33291;46.222;26.460;2023-02-07T06:10:01;6.70;;;2.92;;
47555;SDS011;33291;46.222;26.460;2023-02-07T06:12:27;5.47;;;2.63;;
47555;SDS011;33291;46.222;26.460;2023-02-07T06:14:52;10.25;;;3.10;;
47555;SDS011;33291;46.222;26.460;2023-02-07T06:17:18;6.85;;;3.78;;
47555;SDS011;33291;46.222;26.460;2023-02-07T06:19:43;6.95;;;3.13;;
47555;SDS011;33291;46.222;26.460;2023-02-07T06:22:09;5.40;;;2.42;;
47555;SDS011;33291;46.222;26.460;2023-02-07T06:24:34;9.45;;;3.08;;
47555;SDS011;33291;46.222;26.460;2023-02-07T06:27:00;18.90;;;4.68;;
47555;SDS011;33291;46.222;26.460;2023-02-07T06:29:25;13.68;;;4.40;;
47555;SDS011;33291;46.222;26.460;2023-02-07T06:31:51;9.25;;;3.05;;
47555;SDS011;33291;46.222;26.460;2023-02-07T06:34:16;7.90;;;2.90;;
47555;SDS011;33291;46.222;26.460;2023-02-07T06:36:42;9.23;;;3.83;;
47555;SDS011;33291;46.222;26.460;2023-02-07T06:39:07;9.95;;;3.30;;
47555;SDS011;33291;46.222;26.460;2023-02-07T06:41:33;4.75;;;3.10;;
47555;SDS011;33291;46.222;26.460;2023-02-07T06:43:59;8.82;;;4.00;;
47555;SDS011;33291;46.222;26.460;2023-02-07T06:46:24;13.70;;;5.00;;
47555;SDS011;33291;46.222;26.460;2023-02-07T06:48:50;14.63;;;5.22;;
47555;SDS011;33291;46.222;26.460;2023-02-07T06:51:15;12.48;;;4.28;;
47555;SDS011;33291;46.222;26.460;2023-02-07T06:53:41;6.30;;;3.83;;
47555;SDS011;33291;46.222;26.460;2023-02-07T06:56:06;13.10;;;5.40;;
47555;SDS011;33291;46.222;26.460;2023-02-07T06:58:32;43.78;;;17.70;;
47555;SDS011;33291;46.222;26.460;2023-02-07T07:00:59;20.63;;;9.20;;
47555;SDS011;33291;46.222;26.460;2023-02-07T07:03:26;22.63;;;9.65;;
47555;SDS011;33291;46.222;26.460;2023-02-07T07:05:53;29.35;;;10.60;;
47555;SDS011;33291;46.222;26.460;2023-02-07T07:08:19;29.92;;;12.32;;
47555;SDS011;33291;46.222;26.460;2023-02-07T07:10:44;22.67;;;9.15;;
47555;SDS011;33291;46.222;26.460;2023-02-07T07:13:10;12.05;;;5.22;;
47555;SDS011;33291;46.222;26.460;2023-02-07T07:15:35;35.30;;;13.80;;
47555;SDS011;33291;46.222;26.460;2023-02-07T07:18:01;61.58;;;24.00;;
47555;SDS011;33291;46.222;26.460;2023-02-07T07:20:27;34.17;;;14.40;;
47555;SDS011;33291;46.222;26.460;2023-02-07T07:22:52;28.13;;;12.63;;
47555;SDS011;33291;46.222;26.460;2023-02-07T07:34:27;11.65;;;3.83;;
47555;SDS011;33291;46.222;26.460;2023-02-07T07:36:53;14.05;;;6.70;;
47555;SDS011;33291;46.222;26.460;2023-02-07T07:39:21;20.85;;;9.23;;
47555;SDS011;33291;46.222;26.460;2023-02-07T07:41:47;17.27;;;6.57;;
47555;SDS011;33291;46.222;26.460;2023-02-07T07:44:13;14.23;;;6.72;;
47555;SDS011;33291;46.222;26.460;2023-02-07T07:46:38;13.20;;;5.70;;
47555;SDS011;33291;46.222;26.460;2023-02-07T07:49:04;15.38;;;6.03;;
47555;SDS011;33291;46.222;26.460;2023-02-07T07:51:30;12.25;;;5.15;;
47555;SDS011;33291;46.222;26.460;2023-02-07T07:53:55;11.25;;;4.38;;
47555;SDS011;33291;46.222;26.460;2023-02-07T07:56:21;7.43;;;3.88;;
47555;SDS011;33291;46.222;26.460;2023-02-07T07:58:46;6.55;;;2.78;;
47555;SDS011;33291;46.222;26.460;2023-02-07T08:01:12;7.80;;;3.45;;
47555;SDS011;33291;46.222;26.460;2023-02-07T08:03:38;7.50;;;4.22;;
47555;SDS011;33291;46.222;26.460;2023-02-07T08:06:04;8.77;;;3.92;;
47555;SDS011;33291;46.222;26.460;2023-02-07T08:08:30;15.32;;;7.03;;
47555;SDS011;33291;46.222;26.460;2023-02-07T08:10:59;19.30;;;8.52;;
47555;SDS011;33291;46.222;26.460;2023-02-07T08:13:27;13.60;;;7.05;;
47555;SDS011;33291;46.222;26.460;2023-02-07T08:15:52;18.58;;;7.55;;
47555;SDS011;33291;46.222;26.460;2023-02-07T08:18:18;8.18;;;4.50;;
47555;SDS011;33291;46.222;26.460;2023-02-07T08:20:43;9.30;;;5.05;;
47555;SDS011;33291;46.222;26.460;2023-02-07T08:23:09;11.57;;;5.20;;
47555;SDS011;33291;46.222;26.460;2023-02-07T08:25:35;12.93;;;6.15;;
47555;SDS011;33291;46.222;26.460;2023-02-07T08:28:01;14.55;;;5.85;;
47555;SDS011;33291;46.222;26.460;2023-02-07T08:30:27;10.90;;;5.15;;
47555;SDS011;33291;46.222;26.460;2023-02-07T08:32:52;13.73;;;6.60;;
47555;SDS011;33291;46.222;26.460;2023-02-07T08:35:19;15.38;;;7.10;;
47555;SDS011;33291;46.222;26.460;2023-02-07T08:37:45;13.73;;;6.22;;
47555;SDS011;33291;46.222;26.460;2023-02-07T08:40:11;7.20;;;3.38;;
47555;SDS011;33291;46.222;26.460;2023-02-07T08:42:37;8.32;;;4.53;;
47555;SDS011;33291;46.222;26.460;2023-02-07T08:45:03;8.90;;;5.05;;
47555;SDS011;33291;46.222;26.460;2023-02-07T08:47:29;11.45;;;4.97;;
47555;SDS011;33291;46.222;26.460;2023-02-07T08:49:55;9.80;;;4.75;;
47555;SDS011;33291;46.222;26.460;2023-02-07T08:52:21;8.70;;;4.05;;
47555;SDS011;33291;46.222;26.460;2023-02-07T08:54:47;8.73;;;4.57;;
47555;SDS011;33291;46.222;26.460;2023-02-07T08:57:13;11.02;;;4.65;;
47555;SDS011;33291;46.222;26.460;2023-02-07T08:59:39;11.88;;;5.45;;
47555;SDS011;33291;46.222;26.460;2023-02-07T09:02:05;11.57;;;4.65;;
47555;SDS011;33291;46.222;26.460;2023-02-07T09:04:31;6.15;;;3.95;;
47555;SDS011;33291;46.222;26.460;2023-02-07T09:06:56;5.43;;;3.10;;
47555;SDS011;33291;46.222;26.460;2023-02-07T09:09:22;5.63;;;3.03;;
47555;SDS011;33291;46.222;26.460;2023-02-07T09:11:49;7.00;;;3.55;;
47555;SDS011;33291;46.222;26.460;2023-02-07T09:14:14;5.75;;;2.83;;
47555;SDS011;33291;46.222;26.460;2023-02-07T09:16:40;5.57;;;2.60;;
47555;SDS011;33291;46.222;26.460;2023-02-07T09:19:06;5.97;;;2.70;;
47555;SDS011;33291;46.222;26.460;2023-02-07T09:21:31;4.57;;;2.10;;
47555;SDS011;33291;46.222;26.460;2023-02-07T09:23:57;8.35;;;3.40;;
47555;SDS011;33291;46.222;26.460;2023-02-07T09:26:23;4.95;;;2.17;;
47555;SDS011;33291;46.222;26.460;2023-02-07T09:28:53;3.85;;;1.73;;
47555;SDS011;33291;46.222;26.460;2023-02-07T09:31:18;4.93;;;1.98;;
47555;SDS011;33291;46.222;26.460;2023-02-07T09:33:45;5.85;;;2.90;;
47555;SDS011;33291;46.222;26.460;2023-02-07T09:36:17;3.83;;;2.35;;
47555;SDS011;33291;46.222;26.460;2023-02-07T09:38:45;7.15;;;2.50;;
47555;SDS011;33291;46.222;26.460;2023-02-07T09:41:14;6.28;;;2.47;;
47555;SDS011;33291;46.222;26.460;2023-02-07T09:43:57;6.68;;;2.83;;
47555;SDS011;33291;46.222;26.460;2023-02-07T09:55:03;4.63;;;2.50;;
47555;SDS011;33291;46.222;26.460;2023-02-07T09:57:40;7.00;;;2.88;;
47555;SDS011;33291;46.222;26.460;2023-02-07T10:00:19;8.52;;;3.03;;
47555;SDS011;33291;46.222;26.460;2023-02-07T10:03:14;7.95;;;3.67;;
47555;SDS011;33291;46.222;26.460;2023-02-07T10:05:44;7.78;;;3.70;;
47555;SDS011;33291;46.222;26.460;2023-02-07T10:08:15;7.35;;;2.92;;
47555;SDS011;33291;46.222;26.460;2023-02-07T10:10:43;7.55;;;3.58;;
47555;SDS011;33291;46.222;26.460;2023-02-07T10:16:22;5.78;;;3.10;;
47555;SDS011;33291;46.222;26.460;2023-02-07T10:19:34;6.32;;;2.85;;
47555;SDS011;33291;46.222;26.460;2023-02-07T10:24:54;4.63;;;2.45;;
47555;SDS011;33291;46.222;26.460;2023-02-07T10:30:29;4.72;;;2.20;;
47555;SDS011;33291;46.222;26.460;2023-02-07T10:33:09;5.80;;;2.35;;
47555;SDS011;33291;46.222;26.460;2023-02-07T10:35:39;6.55;;;2.60;;
47555;SDS011;33291;46.222;26.460;2023-02-07T10:41:09;4.88;;;2.38;;
47555;SDS011;33291;46.222;26.460;2023-02-07T10:43:41;6.95;;;2.85;;
47555;SDS011;33291;46.222;26.460;2023-02-07T10:46:10;5.78;;;2.33;;
47555;SDS011;33291;46.222;26.460;2023-02-07T10:48:38;4.60;;;2.20;;
47555;SDS011;33291;46.222;26.460;2023-02-07T10:51:17;4.38;;;2.25;;
47555;SDS011;33291;46.222;26.460;2023-02-07T10:54:19;4.63;;;2.05;;
47555;SDS011;33291;46.222;26.460;2023-02-07T10:56:52;5.90;;;2.63;;
47555;SDS011;33291;46.222;26.460;2023-02-07T11:08:01;7.97;;;2.63;;
47555;SDS011;33291;46.222;26.460;2023-02-07T11:10:40;4.25;;;2.70;;
47555;SDS011;33291;46.222;26.460;2023-02-07T11:13:11;7.90;;;2.35;;
47555;SDS011;33291;46.222;26.460;2023-02-07T11:15:45;6.13;;;3.10;;
47555;SDS011;33291;46.222;26.460;2023-02-07T11:20:55;8.07;;;3.50;;
47555;SDS011;33291;46.222;26.460;2023-02-07T11:23:21;5.78;;;3.15;;
47555;SDS011;33291;46.222;26.460;2023-02-07T11:25:48;5.80;;;3.13;;
47555;SDS011;33291;46.222;26.460;2023-02-07T11:28:21;5.75;;;3.40;;
47555;SDS011;33291;46.222;26.460;2023-02-07T11:30:56;7.38;;;3.80;;
47555;SDS011;33291;46.222;26.460;2023-02-07T11:33:27;8.35;;;4.00;;
47555;SDS011;33291;46.222;26.460;2023-02-07T11:38:55;7.57;;;3.85;;
47555;SDS011;33291;46.222;26.460;2023-02-07T11:41:27;8.30;;;3.75;;
47555;SDS011;33291;46.222;26.460;2023-02-07T11:43:58;8.23;;;4.53;;
47555;SDS011;33291;46.222;26.460;2023-02-07T11:46:29;9.27;;;4.65;;
47555;SDS011;33291;46.222;26.460;2023-02-07T11:49:04;9.60;;;4.68;;
47555;SDS011;33291;46.222;26.460;2023-02-07T11:51:33;8.45;;;4.68;;
47555;SDS011;33291;46.222;26.460;2023-02-07T11:54:03;11.38;;;6.13;;
47555;SDS011;33291;46.222;26.460;2023-02-07T11:59:02;13.25;;;5.55;;
47555;SDS011;33291;46.222;26.460;2023-02-07T12:01:31;10.05;;;5.28;;
47555;SDS011;33291;46.222;26.460;2023-02-07T12:03:59;12.68;;;5.60;;
47555;SDS011;33291;46.222;26.460;2023-02-07T12:06:32;12.45;;;6.00;;
47555;SDS011;33291;46.222;26.460;2023-02-07T12:09:03;23.15;;;12.70;;
47555;SDS011;33291;46.222;26.460;2023-02-07T12:11:35;38.50;;;18.42;;
47555;SDS011;33291;46.222;26.460;2023-02-07T12:14:08;36.22;;;17.20;;
47555;SDS011;33291;46.222;26.460;2023-02-07T12:16:43;15.23;;;6.50;;
47555;SDS011;33291;46.222;26.460;2023-02-07T12:21:50;11.00;;;5.03;;
47555;SDS011;33291;46.222;26.460;2023-02-07T12:24:39;8.63;;;4.70;;
47555;SDS011;33291;46.222;26.460;2023-02-07T12:27:16;13.30;;;5.85;;
47555;SDS011;33291;46.222;26.460;2023-02-07T12:33:18;52.97;;;15.88;;
47555;SDS011;33291;46.222;26.460;2023-02-07T12:36:07;9.82;;;4.63;;
47555;SDS011;33291;46.222;26.460;2023-02-07T12:38:50;9.80;;;5.03;;
47555;SDS011;33291;46.222;26.460;2023-02-07T12:41:20;12.05;;;5.28;;
47555;SDS011;33291;46.222;26.460;2023-02-07T12:46:33;11.27;;;5.95;;
47555;SDS011;33291;46.222;26.460;2023-02-07T12:54:51;9.63;;;4.70;;
47555;SDS011;33291;46.222;26.460;2023-02-07T13:05:46;11.10;;;5.55;;
47555;SDS011;33291;46.222;26.460;2023-02-07T13:16:44;17.67;;;8.65;;
47555;SDS011;33291;46.222;26.460;2023-02-07T13:22:26;26.60;;;13.40;;
47555;SDS011;33291;46.222;26.460;2023-02-07T13:25:18;28.97;;;12.40;;
47555;SDS011;33291;46.222;26.460;2023-02-07T13:27:48;20.90;;;10.25;;
47555;SDS011;33291;46.222;26.460;2023-02-07T13:30:16;18.90;;;9.32;;
47555;SDS011;33291;46.222;26.460;2023-02-07T13:32:45;15.55;;;8.13;;
47555;SDS011;33291;46.222;26.460;2023-02-07T13:35:22;16.33;;;8.80;;
47555;SDS011;33291;46.222;26.460;2023-02-07T13:37:52;15.27;;;8.43;;
47555;SDS011;33291;46.222;26.460;2023-02-07T13:43:09;18.23;;;9.23;;
47555;SDS011;33291;46.222;26.460;2023-02-07T13:45:54;15.70;;;8.02;;
47555;SDS011;33291;46.222;26.460;2023-02-07T13:48:42;16.77;;;8.98;;
47555;SDS011;33291;46.222;26.460;2023-02-07T13:51:22;19.67;;;9.88;;
47555;SDS011;33291;46.222;26.460;2023-02-07T13:56:33;35.83;;;15.80;;
47555;SDS011;33291;46.222;26.460;2023-02-07T13:59:32;17.20;;;8.15;;
47555;SDS011;33291;46.222;26.460;2023-02-07T14:02:02;25.90;;;13.68;;
47555;SDS011;33291;46.222;26.460;2023-02-07T14:07:26;27.58;;;12.13;;
47555;SDS011;33291;46.222;26.460;2023-02-07T14:09:55;24.30;;;12.68;;
47555;SDS011;33291;46.222;26.460;2023-02-07T14:12:26;14.07;;;8.35;;
47555;SDS011;33291;46.222;26.460;2023-02-07T14:14:55;23.33;;;12.68;;
47555;SDS011;33291;46.222;26.460;2023-02-07T14:20:10;44.03;;;24.30;;
47555;SDS011;33291;46.222;26.460;2023-02-07T14:33:10;23.48;;;11.38;;
47555;SDS011;33291;46.222;26.460;2023-02-07T14:35:45;19.33;;;10.80;;
47555;SDS011;33291;46.222;26.460;2023-02-07T14:38:21;24.00;;;12.17;;
47555;SDS011;33291;46.222;26.460;2023-02-07T14:40:54;31.75;;;15.70;;
47555;SDS011;33291;46.222;26.460;2023-02-07T14:43:32;38.38;;;18.58;;
47555;SDS011;33291;46.222;26.460;2023-02-07T14:46:09;27.23;;;13.63;;
47555;SDS011;33291;46.222;26.460;2023-02-07T14:53:57;18.88;;;10.10;;
47555;SDS011;33291;46.222;26.460;2023-02-07T14:58:55;21.38;;;10.75;;
47555;SDS011;33291;46.222;26.460;2023-02-07T15:01:23;18.13;;;9.63;;
47555;SDS011;33291;46.222;26.460;2023-02-07T15:03:59;18.58;;;9.48;;
47555;SDS011;33291;46.222;26.460;2023-02-07T15:06:26;20.17;;;10.30;;
47555;SDS011;33291;46.222;26.460;2023-02-07T15:08:59;25.25;;;13.13;;
47555;SDS011;33291;46.222;26.460;2023-02-07T15:11:26;26.85;;;14.43;;
47555;SDS011;33291;46.222;26.460;2023-02-07T15:13:54;30.50;;;17.83;;
47555;SDS011;33291;46.222;26.460;2023-02-07T15:16:26;31.92;;;17.80;;
47555;SDS011;33291;46.222;26.460;2023-02-07T15:18:56;40.35;;;19.13;;
47555;SDS011;33291;46.222;26.460;2023-02-07T15:21:43;34.63;;;17.45;;
47555;SDS011;33291;46.222;26.460;2023-02-07T15:24:17;43.47;;;21.83;;
47555;SDS011;33291;46.222;26.460;2023-02-07T15:26:54;48.00;;;25.13;;
47555;SDS011;33291;46.222;26.460;2023-02-07T15:29:23;38.80;;;18.48;;
47555;SDS011;33291;46.222;26.460;2023-02-07T15:31:51;33.17;;;19.85;;
47555;SDS011;33291;46.222;26.460;2023-02-07T15:34:22;37.67;;;19.67;;
47555;SDS011;33291;46.222;26.460;2023-02-07T15:36:55;42.60;;;23.88;;
47555;SDS011;33291;46.222;26.460;2023-02-07T15:39:23;42.30;;;21.90;;
47555;SDS011;33291;46.222;26.460;2023-02-07T15:41:52;42.42;;;21.55;;
47555;SDS011;33291;46.222;26.460;2023-02-07T15:44:29;37.55;;;19.60;;
47555;SDS011;33291;46.222;26.460;2023-02-07T15:55:34;58.20;;;30.58;;
47555;SDS011;33291;46.222;26.460;2023-02-07T15:58:16;54.63;;;30.55;;
47555;SDS011;33291;46.222;26.460;2023-02-07T16:00:46;62.47;;;31.33;;
47555;SDS011;33291;46.222;26.460;2023-02-07T16:03:22;70.80;;;37.65;;
47555;SDS011;33291;46.222;26.460;2023-02-07T16:09:31;70.57;;;35.53;;
47555;SDS011;33291;46.222;26.460;2023-02-07T16:11:51;59.35;;;29.42;;
47555;SDS011;33291;46.222;26.460;2023-02-07T16:14:19;46.92;;;26.85;;
47555;SDS011;33291;46.222;26.460;2023-02-07T16:16:53;50.47;;;25.73;;
47555;SDS011;33291;46.222;26.460;2023-02-07T16:22:11;35.53;;;18.52;;
47555;SDS011;33291;46.222;26.460;2023-02-07T16:24:40;31.13;;;14.95;;
47555;SDS011;33291;46.222;26.460;2023-02-07T16:27:09;26.35;;;13.57;;
47555;SDS011;33291;46.222;26.460;2023-02-07T16:29:41;25.85;;;11.85;;
47555;SDS011;33291;46.222;26.460;2023-02-07T16:32:10;27.33;;;12.90;;
47555;SDS011;33291;46.222;26.460;2023-02-07T16:34:36;34.65;;;15.95;;
47555;SDS011;33291;46.222;26.460;2023-02-07T16:37:01;50.70;;;24.33;;
47555;SDS011;33291;46.222;26.460;2023-02-07T16:39:27;28.50;;;15.23;;
47555;SDS011;33291;46.222;26.460;2023-02-07T16:41:59;38.65;;;20.73;;
47555;SDS011;33291;46.222;26.460;2023-02-07T16:44:28;29.10;;;16.13;;
47555;SDS011;33291;46.222;26.460;2023-02-07T16:46:57;27.08;;;13.40;;
47555;SDS011;33291;46.222;26.460;2023-02-07T16:49:24;26.05;;;13.25;;
47555;SDS011;33291;46.222;26.460;2023-02-07T16:51:50;22.90;;;12.13;;
47555;SDS011;33291;46.222;26.460;2023-02-07T16:54:17;22.13;;;11.82;;
47555;SDS011;33291;46.222;26.460;2023-02-07T16:56:43;25.23;;;13.23;;
47555;SDS011;33291;46.222;26.460;2023-02-07T16:59:14;24.45;;;12.60;;
47555;SDS011;33291;46.222;26.460;2023-02-07T17:01:45;22.73;;;11.48;;
47555;SDS011;33291;46.222;26.460;2023-02-07T17:04:11;20.63;;;11.60;;
47555;SDS011;33291;46.222;26.460;2023-02-07T17:06:37;22.95;;;11.95;;
47555;SDS011;33291;46.222;26.460;2023-02-07T17:09:04;23.05;;;12.23;;
47555;SDS011;33291;46.222;26.460;2023-02-07T17:11:38;21.48;;;11.50;;
47555;SDS011;33291;46.222;26.460;2023-02-07T17:14:03;21.90;;;11.13;;
47555;SDS011;33291;46.222;26.460;2023-02-07T17:16:29;21.52;;;11.27;;
47555;SDS011;33291;46.222;26.460;2023-02-07T17:18:54;20.70;;;12.15;;
47555;SDS011;33291;46.222;26.460;2023-02-07T17:21:20;21.25;;;11.63;;
47555;SDS011;33291;46.222;26.460;2023-02-07T17:23:47;21.98;;;12.38;;
47555;SDS011;33291;46.222;26.460;2023-02-07T17:26:21;21.98;;;10.85;;